Terminal Aerodrome Forecast
Issued by NWS

Home | Current Version | Previous Version | Graphics & Text | Print | Product List | Glossary On
Versions: 1 2 3 4 5 6 7 8 9 10 11 12
611
FTUS42 KMHX 202321
TAFOAJ
TAF
KOAJ 202321Z 2100/2124 21005KT P6SM SCT250
     FM211400 23010KT P6SM SCT050
     FM211900 21010G18KT P6SM SCT050
      AMD LTD TO CLD VIS AND WIND=

USA.gov is the U.S. government's official web portal to all federal, state and local government web resources and services.